Latest Coastal Weather Observations for Norah Head

IDN60701

Issued at 10:31 pm EST Friday 19 July 2019 (issued every 10 minutes, with the page automatically refreshed every 10 minutes)

About coastal observations | Map of coastal stations | Coastal observations for NSW | Marine services | Other Formats
Station Details ID: 061366 Name: NORAH HEAD AWS Lat: -33.28 Lon: 151.58 Height: 18.8 m
Data from the previous 72 hours. | See also: Recent months at Norah Head
Date/Time
EST
Wind Sea
Height
m
Swell Vis
km
Cloud Weather Temp
°C
Press
hPa
Rain since
9am
mm
Dir  Spd
kts
Gust
kts
Height
m
Period
s
Dir
19/10:30pm NW 6 8 - - - - - - - 13.0 1023.1 0.0
19/10:00pm WNW 6 8 - - - - - - - 13.2 1023.0 0.0
19/09:30pm WNW 6 8 - - - - - - - 12.9 1022.8 0.0
19/09:00pm NW 6 8 - - - - - - - 12.8 1022.7 0.0
19/08:30pm NW 5 6 - - - - - - - 13.1 1022.5 0.0
19/08:00pm NW 3 3 - - - - - - - 13.7 1022.2 0.0
19/07:30pm SE 3 5 - - - - - - - 14.6 1021.9 0.0
19/07:00pm SE 3 4 - - - - - - - 14.7 1021.7 0.0
19/06:30pm SE 5 7 - - - - - - - 14.6 1021.4 0.0
19/06:00pm SE 3 4 - - - - - - - 14.6 1021.0 0.0
19/05:30pm SSE 3 4 - - - - - - - 14.9 1020.6 0.0
19/05:00pm CALM 0 0 - - - - - - - 15.4 1020.2 0.0
19/04:30pm CALM 0 1 - - - - - - - 16.3 1020.1 0.0
19/04:00pm SSW 2 3 - - - - - - - 17.2 1020.0 0.0
19/03:30pm SW 1 3 - - - - - - - 17.7 1019.8 0.0
19/03:00pm SSW 3 4 - - - - - - - 17.6 1019.5 0.0
19/02:30pm SSW 4 6 - - - - - - - 17.8 1019.3 0.0
19/02:00pm WSW 3 6 - - - - - - - 17.9 1019.4 0.0
19/01:30pm WSW 3 8 - - - - - - - 18.0 1019.3 0.0
19/01:00pm W 4 10 - - - - - - - 17.4 1019.3 0.0
19/12:30pm WSW 4 7 - - - - - - - 16.7 1019.5 0.0
19/12:00pm WSW 5 9 - - - - - - - 15.9 1019.8 0.0
19/11:30am WSW 7 13 - - - - - - - 15.5 1020.0 0.0
19/11:00am W 5 9 - - - - - - - 15.2 1020.4 0.0
19/10:30am WNW 4 8 - - - - - - - 14.4 1020.5 0.0
19/10:00am WNW 5 11 - - - - - - - 13.8 1020.5 0.0
19/09:30am NW 5 10 - - - - - - - 12.4 1020.5 0.0
19/09:00am WNW 3 6 - - - - - - - 11.8 1020.3 0.0
19/08:30am WNW 6 11 - - - - - - - 10.6 1020.1 0.0
19/08:00am WNW 7 12 - - - - - - - 8.9 1019.9 0.0
19/07:30am WNW 4 10 - - - - - - - 7.7 1019.9 0.0
19/07:00am WNW 5 9 - - - - - - - 7.3 1019.6 0.0
19/06:30am WNW 4 6 - - - - - - - 7.1 1019.4 0.0
19/06:00am NW 2 5 - - - - - - - 7.2 1019.2 0.0
19/05:30am WNW 4 7 - - - - - - - 7.5 1018.9 0.0
19/05:00am WNW 4 7 - - - - - - - 7.5 1018.6 0.0
19/04:30am WNW 5 10 - - - - - - - 8.3 1018.1 0.0
19/04:00am WNW 4 10 - - - - - - - 8.1 1018.1 0.0
19/03:30am WNW 6 10 - - - - - - - 8.4 1017.6 0.0
19/03:00am WNW 6 11 - - - - - - - 8.6 1017.7 0.0
19/02:30am WNW 5 10 - - - - - - - 9.0 1017.9 0.0
19/02:00am WNW 7 14 - - - - - - - 9.5 1017.9 0.0
19/01:30am WNW 6 11 - - - - - - - 9.7 1017.9 0.0
19/01:00am WNW 6 10 - - - - - - - 9.8 1017.8 0.0
19/12:30am WNW 7 13 - - - - - - - 10.3 1017.9 0.0
19/12:00am W 7 10 - - - - - - - 10.5 1018.0 0.0
 
Date/Time
EST
Wind Sea
Height
m
Swell Vis
km
Cloud Weather Temp
°C
Press
hPa
Rain since
9am
mm
Dir  Spd
kts
Gust
kts
Height
m
Period
s
Dir
18/11:30pm W 7 10 - - - - - - - 10.8 1018.2 0.0
18/11:00pm WNW 6 9 - - - - - - - 10.8 1018.2 0.0
18/10:30pm WNW 6 9 - - - - - - - 11.2 1018.4 0.0
18/10:00pm W 7 9 - - - - - - - 11.7 1018.3 0.0
18/09:30pm WNW 6 9 - - - - - - - 11.4 1018.0 0.0
18/09:00pm W 7 11 - - - - - - - 12.8 1017.9 0.0
18/08:30pm W 8 9 - - - - - - - 13.8 1017.5 0.0
18/08:00pm W 5 7 - - - - - - - 14.5 1017.2 0.0
18/07:30pm WSW 3 5 - - - - - - - 14.2 1017.1 0.0
18/07:00pm S 4 5 - - - - - - - 15.2 1016.7 0.0
18/06:30pm SSE 8 9 - - - - - - - 15.5 1016.2 0.0
18/06:00pm SSE 8 9 - - - - - - - 15.5 1015.9 0.0
18/05:30pm SSE 7 8 - - - - - - - 15.3 1015.6 0.0
18/05:00pm S 5 7 - - - - - - - 15.9 1015.3 0.0
18/04:30pm SSE 7 9 - - - - - - - 16.3 1015.2 0.0
18/04:00pm SSE 7 9 - - - - - - - 17.0 1014.9 0.0
18/03:30pm SSE 8 10 - - - - - - - 17.6 1014.6 0.0
18/03:00pm S 5 8 - - - - - - - 17.7 1014.4 0.0
18/02:30pm SSW 5 7 - - - - - - - 18.1 1014.5 0.0
18/02:00pm SW 6 9 - - - - - - - 17.8 1014.6 0.0
18/01:30pm WSW 6 9 - - - - - - - 18.2 1014.7 0.0
18/01:00pm WSW 6 10 - - - - - - - 18.0 1014.9 0.0
18/12:30pm WSW 7 11 - - - - - - - 17.7 1015.0 0.0
18/12:00pm W 6 11 - - - - - - - 17.5 1015.0 0.0
18/11:30am W 5 10 - - - - - - - 17.1 1015.6 0.0
18/11:00am WNW 5 9 - - - - - - - 16.5 1015.9 0.0
18/10:30am WNW 5 12 - - - - - - - 16.1 1016.2 0.0
18/10:00am WNW 5 11 - - - - - - - 15.4 1016.3 0.0
18/09:30am WNW 6 12 - - - - - - - 14.6 1016.2 0.0
18/09:00am WNW 5 11 - - - - - - - 13.6 1016.0 0.0
18/08:30am WNW 4 10 - - - - - - - 12.5 1015.8 0.0
18/08:00am WNW 5 9 - - - - - - - 11.5 1015.5 0.0
18/07:30am WNW 5 9 - - - - - - - 10.3 1015.1 0.0
18/07:00am WNW 5 7 - - - - - - - 9.6 1014.8 0.0
18/06:30am NW 5 7 - - - - - - - 9.4 1014.5 0.0
18/06:00am NW 4 7 - - - - - - - 9.5 1014.4 0.0
18/05:30am NW 4 8 - - - - - - - 9.8 1014.1 0.0
18/05:00am WNW 4 7 - - - - - - - 9.8 1013.8 0.0
18/04:30am NW 4 10 - - - - - - - 9.9 1013.8 0.0
18/04:00am NW 3 6 - - - - - - - 10.0 1013.8 0.0
18/03:30am NW 3 5 - - - - - - - 10.2 1013.5 0.0
18/03:00am NW 3 5 - - - - - - - 10.3 1013.7 0.0
18/02:30am NW 4 8 - - - - - - - 11.1 1013.7 0.0
18/02:00am W 3 6 - - - - - - - 11.0 1013.5 0.0
18/01:30am NW 5 9 - - - - - - - 11.3 1013.7 0.0
18/01:00am NW 4 9 - - - - - - - 11.6 1014.2 0.0
18/12:30am WNW 4 9 - - - - - - - 12.0 1014.5 0.0
18/12:00am NW 5 9 - - - - - - - 12.2 1014.8 0.0
 
Date/Time
EST
Wind Sea
Height
m
Swell Vis
km
Cloud Weather Temp
°C
Press
hPa
Rain since
9am
mm
Dir  Spd
kts
Gust
kts
Height
m
Period
s
Dir
17/11:30pm NW 5 10 - - - - - - - 12.5 1014.9 0.0
17/11:00pm WNW 5 10 - - - - - - - 12.4 1015.4 0.0
17/10:30pm W 4 8 - - - - - - - 12.5 1015.8 0.0
17/10:00pm W 6 13 - - - - - - - 12.9 1015.8 0.0
17/09:30pm WSW 8 14 - - - - - - - 13.4 1015.8 0.0
17/09:00pm W 3 6 - - - - - - - 13.0 1014.7 0.0
17/08:30pm W 4 7 - - - - - - - 13.5 1014.2 0.0
17/08:00pm W 4 7 - - - - - - - 14.0 1014.0 0.0
17/07:30pm WNW 3 4 - - - - - - - 14.0 1013.7 0.0
17/07:00pm WNW 3 5 - - - - - - - 14.8 1013.6 0.0
17/06:30pm NW 3 6 - - - - - - - 14.7 1013.4 0.0
17/06:00pm NW 4 7 - - - - - - - 15.5 1013.3 0.0
17/05:30pm WNW 4 7 - - - - - - - 16.0 1012.9 0.0
17/05:00pm NW 3 5 - - - - - - - 16.2 1012.8 0.0
17/04:30pm NNW 4 9 - - - - - - - 16.6 1012.9 0.0
17/04:00pm NNW 5 7 - - - - - - - 17.9 1013.1 0.0
17/03:30pm NNW 3 6 - - - - - - - 19.1 1013.4 0.0
17/03:00pm NNW 1 3 - - - - - - - 18.9 1013.8 0.0
17/02:30pm NW 3 5 - - - - - - - 19.1 1014.2 0.0
17/02:00pm NNW 4 9 - - - - - - - 18.3 1014.3 0.0
17/01:30pm NW 4 11 - - - - - - - 18.0 1014.8 0.0
17/01:00pm NW 6 10 - - - - - - - 17.8 1015.1 0.0
17/12:30pm NW 4 9 - - - - - - - 18.0 1015.9 0.0
17/12:00pm WNW 3 8 - - - - - - - 17.4 1016.8 0.0
17/11:30am NNW 3 6 - - - - - - - 17.4 1017.5 0.0
17/11:00am NW 4 8 - - - - - - - 16.7 1018.0 0.0
17/10:30am NW 4 8 - - - - - - - 16.5 1018.4 0.0
17/10:00am NNW 4 7 - - - - - - - 16.0 1018.6 0.0
17/09:30am WNW 2 7 - - - - - - - 13.7 1018.8 0.0
17/09:00am NW 4 9 - - - - - - - 13.0 1019.0 0.0
17/08:30am WNW 3 7 - - - - - - - 12.1 1018.9 0.0
17/08:00am W 3 5 - - - - - - - 10.7 1018.9 0.0
17/07:30am W 4 6 - - - - - - - 9.7 1018.9 0.0
17/07:00am WNW 2 4 - - - - - - - 8.8 1018.8 0.0
17/06:30am WNW 3 6 - - - - - - - 8.7 1018.4 0.0
17/06:00am WNW 3 6 - - - - - - - 9.3 1018.2 0.0
17/05:30am W 4 6 - - - - - - - 9.3 1018.0 0.0
17/05:00am NW 2 5 - - - - - - - 9.3 1018.0 0.0
17/04:30am WNW 3 6 - - - - - - - 9.2 1018.1 0.0
17/04:00am NW 4 7 - - - - - - - 9.6 1018.1 0.0
17/03:30am WNW 5 7 - - - - - - - 9.8 1018.2 0.0
17/03:00am WNW 4 7 - - - - - - - 9.7 1018.4 0.0
17/02:30am NW 3 6 - - - - - - - 10.1 1018.8 0.0
17/02:00am NW 4 8 - - - - - - - 10.2 1018.8 0.0
17/01:30am NW 4 7 - - - - - - - 9.9 1019.1 0.0
17/01:00am WNW 4 8 - - - - - - - 10.0 1019.0 0.0
17/12:30am WNW 4 8 - - - - - - - 10.1 1019.1 0.0
17/12:00am W 4 6 - - - - - - - 10.8 1019.3 0.0
 
Date/Time
EST
Wind Sea
Height
m
Swell Vis
km
Cloud Weather Temp
°C
Press
hPa
Rain since
9am
mm
Dir  Spd
kts
Gust
kts
Height
m
Period
s
Dir
16/11:30pm WNW 4 6 - - - - - - - 11.0 1019.5 0.0
16/11:00pm WNW 3 5 - - - - - - - 11.0 1019.7 0.0

Other formats

Comma delimited format used in spreadsheet applications
http://www.bom.gov.au/fwo/IDN60701/IDN60701.95770.axf

JavaScript Object Notation format (JSON) in row-major order
http://www.bom.gov.au/fwo/IDN60701/IDN60701.95770.json

Data quality

Most of these data are generated automatically and are frequently updated. Quality checks on data are not normally performed. It is possible for incorrect values to appear. Refer to information at About Latest Weather Observations and please check the disclaimer before using these data.